createdAt,value
2022-08-25T00:00:54.831Z,100.00
2022-08-25T00:02:57.867Z,100.00
2022-08-25T00:04:59.947Z,100.00
2022-08-25T00:07:04.018Z,100.00
2022-08-25T00:09:06.755Z,100.00
2022-08-25T00:11:12.991Z,100.00
2022-08-25T00:13:14.756Z,100.00
2022-08-25T00:15:16.685Z,100.00
2022-08-25T00:17:18.564Z,100.00
2022-08-25T00:19:25.083Z,100.00
2022-08-25T00:21:28.022Z,100.00
2022-08-25T00:23:29.886Z,100.00
2022-08-25T00:25:31.650Z,100.00
2022-08-25T00:27:33.595Z,100.00
2022-08-25T00:29:35.746Z,100.00
2022-08-25T00:31:39.251Z,100.00
2022-08-25T00:33:41.057Z,100.00
2022-08-25T00:35:43.438Z,100.00
2022-08-25T00:37:45.188Z,100.00
2022-08-25T00:39:47.214Z,100.00
2022-08-25T00:41:51.265Z,100.00
2022-08-25T00:43:59.892Z,100.00
2022-08-25T00:46:01.915Z,100.00
2022-08-25T00:48:04.827Z,100.00
2022-08-25T00:50:09.219Z,100.00
2022-08-25T00:52:13.732Z,100.00
2022-08-25T00:54:24.266Z,100.00
2022-08-25T00:56:27.310Z,100.00
2022-08-25T00:58:31.414Z,100.00
2022-08-25T01:00:39.472Z,100.00
2022-08-25T01:02:41.624Z,100.00
2022-08-25T01:04:48.988Z,100.00
2022-08-25T01:06:52.135Z,100.00
2022-08-25T01:08:53.917Z,100.00
2022-08-25T01:10:58.139Z,100.00
2022-08-25T01:13:16.014Z,100.00
2022-08-25T01:15:18.673Z,100.00
2022-08-25T01:17:20.737Z,100.00
2022-08-25T01:19:22.591Z,100.00
2022-08-25T01:21:27.079Z,100.00
2022-08-25T01:23:29.070Z,100.00
2022-08-25T01:25:51.614Z,100.00
2022-08-25T01:27:53.497Z,100.00
2022-08-25T01:29:55.449Z,100.00
2022-08-25T01:32:00.582Z,100.00
2022-08-25T01:34:03.526Z,100.00
2022-08-25T01:36:05.415Z,100.00
2022-08-25T01:38:08.491Z,100.00
2022-08-25T01:40:11.307Z,100.00
2022-08-25T01:42:23.596Z,100.00
2022-08-25T01:44:25.514Z,100.00
2022-08-25T01:46:27.404Z,100.00
2022-08-25T01:48:29.269Z,100.00
2022-08-25T01:50:31.350Z,100.00
2022-08-25T01:52:58.583Z,100.00
2022-08-25T01:55:00.418Z,100.00
2022-08-25T01:57:02.359Z,100.00
2022-08-25T01:59:04.311Z,100.00
2022-08-25T02:01:13.863Z,100.00
2022-08-25T02:03:18.773Z,100.00
2022-08-25T02:05:23.543Z,100.00
2022-08-25T02:07:25.618Z,100.00
2022-08-25T02:09:28.274Z,100.00
2022-08-25T02:11:30.243Z,100.00
2022-08-25T02:13:32.515Z,100.00
2022-08-25T02:15:34.573Z,100.00
2022-08-25T02:17:36.590Z,100.00
2022-08-25T02:19:38.498Z,100.00
2022-08-25T02:21:40.469Z,100.00
2022-08-25T02:23:42.645Z,100.00
2022-08-25T02:25:44.447Z,100.00
2022-08-25T02:27:47.034Z,100.00
2022-08-25T02:29:48.840Z,100.00
2022-08-25T02:31:50.604Z,100.00
2022-08-25T02:33:53.383Z,100.00
2022-08-25T02:35:58.366Z,100.00
2022-08-25T02:38:00.269Z,100.00
2022-08-25T02:40:02.591Z,100.00
2022-08-25T02:42:04.730Z,100.00
2022-08-25T02:44:08.080Z,100.00
2022-08-25T02:46:11.645Z,100.00
2022-08-25T02:48:13.653Z,100.00
2022-08-25T02:50:15.642Z,100.00
2022-08-25T02:52:17.595Z,100.00
2022-08-25T02:54:19.521Z,100.00
2022-08-25T02:56:21.292Z,100.00
2022-08-25T02:58:23.246Z,100.00
2022-08-25T03:00:25.255Z,100.00
2022-08-25T03:02:28.237Z,100.00
2022-08-25T03:04:30.123Z,100.00
2022-08-25T03:06:31.971Z,100.00
2022-08-25T03:08:34.325Z,100.00
2022-08-25T03:10:36.048Z,100.00
2022-08-25T03:12:37.982Z,100.00
2022-08-25T03:14:40.721Z,100.00
2022-08-25T03:16:42.912Z,100.00
2022-08-25T03:18:48.824Z,100.00
2022-08-25T03:20:50.650Z,100.00
2022-08-25T03:22:52.807Z,100.00
2022-08-25T03:24:54.786Z,100.00
2022-08-25T03:26:56.673Z,100.00
2022-08-25T03:28:59.009Z,100.00
2022-08-25T03:31:01.564Z,100.00
2022-08-25T03:33:03.585Z,100.00
2022-08-25T03:35:06.100Z,100.00
2022-08-25T03:37:08.058Z,100.00
2022-08-25T03:39:09.927Z,100.00
2022-08-25T03:41:16.287Z,100.00
2022-08-25T03:43:18.979Z,100.00
2022-08-25T03:45:20.892Z,100.00
2022-08-25T03:47:22.897Z,100.00
2022-08-25T03:49:24.931Z,100.00
2022-08-25T03:51:32.778Z,100.00
2022-08-25T03:53:34.589Z,100.00
2022-08-25T03:55:36.494Z,100.00
2022-08-25T03:57:38.374Z,100.00
2022-08-25T03:59:40.131Z,100.00
2022-08-25T04:01:44.206Z,100.00
2022-08-25T04:03:46.501Z,100.00
2022-08-25T04:05:48.266Z,100.00
2022-08-25T04:07:50.219Z,100.00
2022-08-25T04:09:54.327Z,100.00
2022-08-25T04:11:56.126Z,100.00
2022-08-25T04:13:58.978Z,100.00
2022-08-25T04:16:00.681Z,100.00
2022-08-25T04:18:02.753Z,100.00
2022-08-25T04:20:05.183Z,100.00
2022-08-25T04:22:07.127Z,100.00
2022-08-25T04:24:12.221Z,100.00
2022-08-25T04:26:20.361Z,100.00
2022-08-25T04:28:22.100Z,100.00
2022-08-25T04:30:24.026Z,100.00
2022-08-25T04:32:25.953Z,100.00
2022-08-25T04:34:28.983Z,100.00
2022-08-25T04:36:33.439Z,100.00
2022-08-25T04:38:35.431Z,100.00
2022-08-25T04:40:37.242Z,100.00
2022-08-25T04:42:39.059Z,100.00
2022-08-25T04:44:40.905Z,100.00
2022-08-25T04:46:42.879Z,100.00
2022-08-25T04:48:45.074Z,100.00
2022-08-25T04:50:46.831Z,100.00
2022-08-25T04:52:48.586Z,100.00
2022-08-25T04:54:50.428Z,100.00
2022-08-25T04:56:54.390Z,100.00
2022-08-25T04:59:10.530Z,100.00
2022-08-25T05:01:17.767Z,100.00
2022-08-25T05:03:19.579Z,100.00
2022-08-25T05:05:21.310Z,100.00
2022-08-25T05:07:23.029Z,100.00
2022-08-25T05:09:25.896Z,100.00
2022-08-25T05:11:27.896Z,100.00
2022-08-25T05:13:29.657Z,100.00
2022-08-25T05:15:31.378Z,100.00
2022-08-25T05:17:33.587Z,100.00
2022-08-25T05:19:35.399Z,100.00
2022-08-25T05:21:37.154Z,100.00
2022-08-25T05:23:40.468Z,100.00
2022-08-25T05:25:42.424Z,100.00
2022-08-25T05:27:44.271Z,100.00
2022-08-25T05:29:46.078Z,100.00
2022-08-25T05:31:50.601Z,100.00
2022-08-25T05:33:53.797Z,100.00
2022-08-25T05:35:55.530Z,100.00
2022-08-25T05:37:57.302Z,100.00
2022-08-25T05:39:59.183Z,100.00
2022-08-25T05:42:00.938Z,100.00
2022-08-25T05:44:02.902Z,100.00
2022-08-25T05:46:04.867Z,100.00
2022-08-25T05:48:06.964Z,100.00
2022-08-25T05:50:09.856Z,100.00
2022-08-25T05:52:15.302Z,100.00
2022-08-25T05:54:19.453Z,100.00
2022-08-25T05:56:21.613Z,100.00
2022-08-25T05:58:24.862Z,100.00
2022-08-25T06:00:26.592Z,100.00
2022-08-25T06:02:28.351Z,100.00
2022-08-25T06:04:30.114Z,100.00
2022-08-25T06:06:32.080Z,100.00
2022-08-25T06:08:33.825Z,100.00
2022-08-25T06:10:36.036Z,100.00
2022-08-25T06:12:38.737Z,100.00
2022-08-25T06:14:40.764Z,100.00
2022-08-25T06:16:42.611Z,100.00
2022-08-25T06:18:44.421Z,100.00
2022-08-25T06:20:46.135Z,100.00
2022-08-25T06:22:48.873Z,100.00
2022-08-25T06:24:51.077Z,100.00
2022-08-25T06:26:53.103Z,100.00
2022-08-25T06:28:54.840Z,100.00
2022-08-25T06:31:01.318Z,100.00
2022-08-25T06:33:03.129Z,100.00
2022-08-25T06:35:06.213Z,100.00
2022-08-25T06:37:07.976Z,100.00
2022-08-25T06:39:10.758Z,100.00
2022-08-25T06:41:13.074Z,100.00
2022-08-25T06:43:14.962Z,100.00
2022-08-25T06:45:16.940Z,100.00
2022-08-25T06:47:19.084Z,100.00
2022-08-25T06:49:21.241Z,100.00
2022-08-25T06:51:25.202Z,100.00
2022-08-25T06:53:26.962Z,100.00
2022-08-25T06:55:28.746Z,100.00
2022-08-25T06:57:30.475Z,100.00
2022-08-25T06:59:33.899Z,100.00
2022-08-25T07:01:36.501Z,100.00
2022-08-25T07:03:38.367Z,100.00
2022-08-25T07:05:43.795Z,100.00
2022-08-25T07:07:45.725Z,100.00
2022-08-25T07:09:47.518Z,100.00
2022-08-25T07:11:49.264Z,100.00
2022-08-25T07:13:51.502Z,100.00
2022-08-25T07:15:56.345Z,100.00
2022-08-25T07:17:58.154Z,100.00
2022-08-25T07:19:59.902Z,100.00
2022-08-25T07:22:01.792Z,100.00
2022-08-25T07:24:09.931Z,100.00
2022-08-25T07:26:37.650Z,100.00
2022-08-25T07:28:40.615Z,100.00
2022-08-25T07:30:51.767Z,100.00
2022-08-25T07:32:55.146Z,100.00
2022-08-25T07:34:57.182Z,100.00
2022-08-25T07:36:59.077Z,100.00
2022-08-25T07:39:02.581Z,100.00
2022-08-25T07:41:05.048Z,100.00
2022-08-25T07:43:07.879Z,100.00
2022-08-25T07:45:10.910Z,100.00
2022-08-25T07:47:12.678Z,100.00
2022-08-25T07:49:16.654Z,100.00
2022-08-25T07:51:18.932Z,100.00
2022-08-25T07:53:20.702Z,100.00
2022-08-25T07:55:27.284Z,100.00
2022-08-25T07:57:29.166Z,100.00
2022-08-25T07:59:31.094Z,100.00
2022-08-25T08:01:41.627Z,100.00
2022-08-25T08:03:51.194Z,100.00
2022-08-25T08:05:53.267Z,100.00
2022-08-25T08:07:55.868Z,100.00
2022-08-25T08:10:32.827Z,100.00
2022-08-25T08:12:19.918Z,100.00
2022-08-25T08:14:21.799Z,100.00
2022-08-25T08:16:26.815Z,100.00
2022-08-25T08:18:28.645Z,100.00
2022-08-25T08:20:30.669Z,100.00
2022-08-25T08:22:43.556Z,100.00
2022-08-25T08:24:54.905Z,100.00
2022-08-25T08:26:59.298Z,100.00
2022-08-25T08:29:01.548Z,100.00
2022-08-25T08:31:03.790Z,100.00
2022-08-25T08:33:11.672Z,100.00
2022-08-25T08:35:14.154Z,100.00
2022-08-25T08:37:16.646Z,100.00
2022-08-25T08:39:18.587Z,100.00
2022-08-25T08:41:40.196Z,100.00
2022-08-25T08:46:11.334Z,100.00
2022-08-25T08:48:42.063Z,100.00
2022-08-25T08:51:14.041Z,100.00
2022-08-25T08:53:25.219Z,100.00
2022-08-25T08:55:31.686Z,99.99
2022-08-25T08:57:41.737Z,100.00
2022-08-25T08:59:51.793Z,97.52
2022-08-25T09:01:58.809Z,98.54
2022-08-25T09:04:20.116Z,95.51
2022-08-25T09:06:31.553Z,97.04
2022-08-25T09:08:33.427Z,95.09
2022-08-25T09:10:46.352Z,95.85
2022-08-25T09:13:11.986Z,89.59
2022-08-25T09:15:25.945Z,91.74
2022-08-25T09:18:04.602Z,93.53
2022-08-25T09:20:23.347Z,89.01
2022-08-25T09:22:33.412Z,91.18
2022-08-25T09:24:42.682Z,88.13
2022-08-25T09:27:12.476Z,89.77
2022-08-25T09:29:18.752Z,88.49
2022-08-25T09:31:29.584Z,86.62
2022-08-25T09:33:35.416Z,90.15
2022-08-25T09:35:40.458Z,89.91
2022-08-25T09:37:42.179Z,88.24
2022-08-25T09:39:43.936Z,85.80
2022-08-25T09:41:53.889Z,84.39
2022-08-25T09:43:55.625Z,81.97
2022-08-25T09:46:13.379Z,82.14
2022-08-25T09:48:48.429Z,81.64
2022-08-25T09:51:02.140Z,83.11
2022-08-25T09:53:17.319Z,86.42
2022-08-25T09:55:30.071Z,86.08
2022-08-25T09:57:49.762Z,89.62
2022-08-25T09:59:57.694Z,90.26
2022-08-25T10:02:02.245Z,86.73
2022-08-25T10:04:06.089Z,88.73
2022-08-25T10:06:14.788Z,87.30
2022-08-25T10:08:31.384Z,85.86
2022-08-25T10:10:38.326Z,84.85
2022-08-25T10:12:46.173Z,85.74
2022-08-25T10:14:54.445Z,88.38
2022-08-25T10:17:27.671Z,82.12
2022-08-25T10:19:31.235Z,86.40
2022-08-25T10:21:34.500Z,86.41
2022-08-25T10:23:40.882Z,81.89
2022-08-25T10:25:48.920Z,81.42
2022-08-25T10:28:13.439Z,83.15
2022-08-25T10:30:24.375Z,79.22
2022-08-25T10:32:41.304Z,84.09
2022-08-25T10:34:53.830Z,81.01
2022-08-25T10:37:23.090Z,84.92
2022-08-25T10:39:40.959Z,81.37
2022-08-25T10:41:58.005Z,80.67
2022-08-25T10:44:21.370Z,81.95
2022-08-25T10:46:45.596Z,84.40
2022-08-25T10:49:22.535Z,81.47
2022-08-25T10:51:58.451Z,81.04
2022-08-25T10:54:20.340Z,80.29
2022-08-25T10:56:28.002Z,79.58
2022-08-25T10:58:58.639Z,80.65
2022-08-25T11:01:09.458Z,78.53
2022-08-25T11:03:13.943Z,80.69
2022-08-25T11:05:31.984Z,79.84
2022-08-25T11:07:58.522Z,79.62
2022-08-25T11:10:06.490Z,78.76
2022-08-25T11:12:19.270Z,79.94
2022-08-25T11:14:34.420Z,79.28
2022-08-25T11:16:51.151Z,82.93
2022-08-25T11:19:10.072Z,79.96
2022-08-25T11:21:20.401Z,77.15
2022-08-25T11:23:28.927Z,76.34
2022-08-25T11:25:47.833Z,74.29
2022-08-25T11:28:11.402Z,75.17
2022-08-25T11:30:15.866Z,76.67
2022-08-25T11:32:21.012Z,74.34
2022-08-25T11:34:23.081Z,73.76
2022-08-25T11:36:36.871Z,73.80
2022-08-25T11:39:09.515Z,73.88
2022-08-25T11:41:40.168Z,70.65
2022-08-25T11:43:53.345Z,69.26
2022-08-25T11:46:11.183Z,74.52
2022-08-25T11:48:31.586Z,70.32
2022-08-25T11:50:55.847Z,69.86
2022-08-25T11:53:29.022Z,70.46
2022-08-25T11:55:34.957Z,70.92
2022-08-25T11:57:37.242Z,69.61
2022-08-25T11:59:50.962Z,67.69
2022-08-25T12:01:55.708Z,69.88
2022-08-25T12:04:31.835Z,69.01
2022-08-25T12:06:33.865Z,68.77
2022-08-25T12:08:53.690Z,69.96
2022-08-25T12:11:07.305Z,69.38
2022-08-25T12:13:51.512Z,68.40
2022-08-25T12:15:54.580Z,70.33
2022-08-25T12:18:18.837Z,68.99
2022-08-25T12:20:55.569Z,68.07
2022-08-25T12:22:58.006Z,68.85
2022-08-25T12:25:26.693Z,65.93
2022-08-25T12:27:34.247Z,66.74
2022-08-25T12:29:48.549Z,68.76
2022-08-25T12:32:03.172Z,69.51
2022-08-25T12:34:32.935Z,67.34
2022-08-25T12:36:35.028Z,65.63
2022-08-25T12:38:44.203Z,66.96
2022-08-25T12:40:48.088Z,65.78
2022-08-25T12:43:03.170Z,64.10
2022-08-25T12:45:23.304Z,63.97
2022-08-25T12:47:28.117Z,68.88
2022-08-25T12:49:34.826Z,66.87
2022-08-25T12:51:42.603Z,67.28
2022-08-25T12:54:01.017Z,69.30
2022-08-25T12:56:07.865Z,68.73
2022-08-25T12:58:11.577Z,67.95
2022-08-25T13:00:21.625Z,67.57
2022-08-25T13:02:55.173Z,67.54
2022-08-25T13:05:13.750Z,62.98
2022-08-25T13:07:29.022Z,60.33
2022-08-25T13:09:55.011Z,61.38
2022-08-25T13:12:15.245Z,61.86
2022-08-25T13:14:28.466Z,61.13
2022-08-25T13:16:30.422Z,62.16
2022-08-25T13:18:35.576Z,63.63
2022-08-25T13:20:37.312Z,60.55
2022-08-25T13:22:39.588Z,60.99
2022-08-25T13:24:43.620Z,60.95
2022-08-25T13:26:56.368Z,59.51
2022-08-25T13:29:00.466Z,58.63
2022-08-25T13:31:16.428Z,59.18
2022-08-25T13:33:22.970Z,58.28
2022-08-25T13:35:32.220Z,56.76
2022-08-25T13:37:34.353Z,58.05
2022-08-25T13:39:55.406Z,58.35
2022-08-25T13:42:00.890Z,59.20
2022-08-25T13:44:06.759Z,59.04
2022-08-25T13:46:19.925Z,56.35
2022-08-25T13:48:49.353Z,55.92
2022-08-25T13:50:52.902Z,57.72
2022-08-25T13:52:57.509Z,58.62
2022-08-25T13:55:04.550Z,59.03
2022-08-25T13:57:22.361Z,57.61
2022-08-25T13:59:35.160Z,56.23
2022-08-25T14:01:49.524Z,57.28
2022-08-25T14:03:55.102Z,57.43
2022-08-25T14:06:07.678Z,55.90
2022-08-25T14:08:34.058Z,56.36
2022-08-25T14:10:42.812Z,54.15
2022-08-25T14:12:47.756Z,54.44
2022-08-25T14:14:59.537Z,52.82
2022-08-25T14:17:21.563Z,53.95
2022-08-25T14:19:32.509Z,52.17
2022-08-25T14:21:34.676Z,52.70
2022-08-25T14:23:38.314Z,54.07
2022-08-25T14:25:42.288Z,52.84
2022-08-25T14:28:03.723Z,52.82
2022-08-25T14:30:06.849Z,51.71
2022-08-25T14:32:10.321Z,52.29
2022-08-25T14:34:21.757Z,51.52
2022-08-25T14:36:23.550Z,52.81
2022-08-25T14:38:25.874Z,52.93
2022-08-25T14:40:32.061Z,52.56
2022-08-25T14:42:35.887Z,49.34
2022-08-25T14:44:38.139Z,49.02
2022-08-25T14:46:49.654Z,49.61
2022-08-25T14:49:03.946Z,48.76
2022-08-25T14:51:05.997Z,51.50
2022-08-25T14:53:08.532Z,53.15
2022-08-25T14:55:11.207Z,51.83
2022-08-25T14:57:13.650Z,55.39
2022-08-25T14:59:15.932Z,57.06
2022-08-25T15:01:20.006Z,54.32
2022-08-25T15:03:34.172Z,53.45
2022-08-25T15:05:37.044Z,53.02
2022-08-25T15:07:39.620Z,52.06
2022-08-25T15:09:41.561Z,53.16
2022-08-25T15:11:46.996Z,55.80
2022-08-25T15:13:49.809Z,53.96
2022-08-25T15:15:52.355Z,51.58
2022-08-25T15:17:58.109Z,52.26
2022-08-25T15:20:02.467Z,52.58
2022-08-25T15:22:08.156Z,53.26
2022-08-25T15:24:17.454Z,53.71
2022-08-25T15:26:19.840Z,52.66
2022-08-25T15:28:22.515Z,54.59
2022-08-25T15:30:30.961Z,54.34
2022-08-25T15:32:33.518Z,52.43
2022-08-25T15:34:35.790Z,51.92
2022-08-25T15:36:38.279Z,52.36
2022-08-25T15:38:42.105Z,51.85
2022-08-25T15:40:43.819Z,52.32
2022-08-25T15:42:46.078Z,52.97
2022-08-25T15:44:53.421Z,51.57
2022-08-25T15:46:56.414Z,51.15
2022-08-25T15:48:58.600Z,50.57
2022-08-25T15:51:00.346Z,50.31
2022-08-25T15:53:02.097Z,52.84
2022-08-25T15:55:04.740Z,54.15
2022-08-25T15:57:08.890Z,56.68
2022-08-25T15:59:11.340Z,57.94
2022-08-25T16:01:30.968Z,57.91
2022-08-25T16:03:32.829Z,56.90
2022-08-25T16:05:48.116Z,57.76
2022-08-25T16:07:51.805Z,59.12
2022-08-25T16:09:56.975Z,60.46
2022-08-25T16:12:02.684Z,61.13
2022-08-25T16:14:07.273Z,61.74
2022-08-25T16:16:09.034Z,61.25
2022-08-25T16:18:11.583Z,61.53
2022-08-25T16:20:16.569Z,61.60
2022-08-25T16:22:19.825Z,61.51
2022-08-25T16:24:23.382Z,62.29
2022-08-25T16:26:25.159Z,63.24
2022-08-25T16:28:26.914Z,62.71
2022-08-25T16:30:28.697Z,62.50
2022-08-25T16:32:30.675Z,61.83
2022-08-25T16:34:33.298Z,60.86
2022-08-25T16:36:37.208Z,61.29
2022-08-25T16:38:40.027Z,61.49
2022-08-25T16:40:42.815Z,62.48
2022-08-25T16:42:44.814Z,64.57
2022-08-25T16:44:46.770Z,65.11
2022-08-25T16:46:48.562Z,64.62
2022-08-25T16:48:50.277Z,64.96
2022-08-25T16:50:52.074Z,64.78
2022-08-25T16:52:53.803Z,66.32
2022-08-25T16:54:56.291Z,66.16
2022-08-25T16:56:58.225Z,67.36
2022-08-25T16:59:01.484Z,69.00
2022-08-25T17:01:10.050Z,69.80
2022-08-25T17:03:12.306Z,72.03
2022-08-25T17:05:14.702Z,74.27
2022-08-25T17:07:16.754Z,76.74
2022-08-25T17:09:25.762Z,74.37
2022-08-25T17:11:33.580Z,74.93
2022-08-25T17:13:36.737Z,76.18
2022-08-25T17:15:43.641Z,77.36
2022-08-25T17:17:46.706Z,76.41
2022-08-25T17:19:52.986Z,77.40
2022-08-25T17:21:56.740Z,76.98
2022-08-25T17:23:58.541Z,77.17
2022-08-25T17:26:00.997Z,77.60
2022-08-25T17:28:04.835Z,79.15
2022-08-25T17:30:08.099Z,79.77
2022-08-25T17:32:09.830Z,80.58
2022-08-25T17:34:16.339Z,80.65
2022-08-25T17:36:19.203Z,81.56
2022-08-25T17:38:23.562Z,82.12
2022-08-25T17:40:26.512Z,84.12
2022-08-25T17:42:30.331Z,87.06
2022-08-25T17:44:32.228Z,86.98
2022-08-25T17:46:34.866Z,89.23
2022-08-25T17:48:37.199Z,97.15
2022-08-25T17:50:39.036Z,100.00
2022-08-25T17:52:40.809Z,100.00
2022-08-25T17:54:42.887Z,98.63
2022-08-25T17:56:44.616Z,98.21
2022-08-25T17:58:48.446Z,98.02
2022-08-25T18:00:50.708Z,98.47
2022-08-25T18:02:52.433Z,99.27
2022-08-25T18:04:54.263Z,100.00
2022-08-25T18:06:55.986Z,100.00
2022-08-25T18:08:59.905Z,100.00
2022-08-25T18:11:02.441Z,100.00
2022-08-25T18:13:04.639Z,100.00
2022-08-25T18:15:08.477Z,100.00
2022-08-25T18:17:10.211Z,100.00
2022-08-25T18:19:12.624Z,100.00
2022-08-25T18:21:18.714Z,100.00
2022-08-25T18:23:20.515Z,100.00
2022-08-25T18:25:22.280Z,100.00
2022-08-25T18:27:27.029Z,100.00
2022-08-25T18:29:29.168Z,100.00
2022-08-25T18:31:31.504Z,100.00
2022-08-25T18:33:34.522Z,100.00
2022-08-25T18:35:38.061Z,100.00
2022-08-25T18:37:39.822Z,100.00
2022-08-25T18:39:41.572Z,100.00
2022-08-25T18:41:45.020Z,100.00
2022-08-25T18:43:47.178Z,100.00
2022-08-25T18:45:49.679Z,100.00
2022-08-25T18:47:51.764Z,100.00
2022-08-25T18:49:53.577Z,100.00
2022-08-25T18:51:55.312Z,100.00
2022-08-25T18:54:00.854Z,100.00
2022-08-25T18:56:03.440Z,100.00
2022-08-25T18:58:06.311Z,100.00
2022-08-25T19:00:10.111Z,100.00
2022-08-25T19:02:11.827Z,100.00
2022-08-25T19:04:14.486Z,100.00
2022-08-25T19:06:19.121Z,100.00
2022-08-25T19:08:21.845Z,100.00
2022-08-25T19:10:23.923Z,100.00
2022-08-25T19:12:25.917Z,100.00
2022-08-25T19:14:27.856Z,100.00
2022-08-25T19:16:36.074Z,100.00
2022-08-25T19:18:37.885Z,100.00
2022-08-25T19:20:40.986Z,100.00
2022-08-25T19:22:42.751Z,100.00
2022-08-25T19:24:44.960Z,100.00
2022-08-25T19:26:49.535Z,100.00
2022-08-25T19:28:53.790Z,100.00
2022-08-25T19:30:55.615Z,100.00
2022-08-25T19:32:58.280Z,100.00
2022-08-25T19:35:00.251Z,100.00
2022-08-25T19:37:04.358Z,100.00
2022-08-25T19:39:08.395Z,100.00
2022-08-25T19:41:10.870Z,100.00
2022-08-25T19:43:17.090Z,100.00
2022-08-25T19:45:22.851Z,100.00
2022-08-25T19:47:24.666Z,100.00
2022-08-25T19:49:31.493Z,100.00
2022-08-25T19:51:33.517Z,100.00
2022-08-25T19:53:35.497Z,100.00
2022-08-25T19:55:37.382Z,100.00
2022-08-25T19:57:43.101Z,100.00
2022-08-25T19:59:46.294Z,100.00
2022-08-25T20:01:48.832Z,100.00
2022-08-25T20:03:50.610Z,100.00
2022-08-25T20:05:52.391Z,100.00
2022-08-25T20:07:55.493Z,100.00
2022-08-25T20:09:59.826Z,100.00
2022-08-25T20:12:01.822Z,100.00
2022-08-25T20:14:04.262Z,100.00
2022-08-25T20:16:06.201Z,100.00
2022-08-25T20:18:08.414Z,100.00
2022-08-25T20:20:14.629Z,100.00
2022-08-25T20:22:17.399Z,100.00
2022-08-25T20:24:20.139Z,100.00
2022-08-25T20:26:21.878Z,100.00
2022-08-25T20:28:28.546Z,100.00
2022-08-25T20:30:30.809Z,100.00
2022-08-25T20:32:33.536Z,100.00
2022-08-25T20:34:35.399Z,100.00
2022-08-25T20:36:39.969Z,100.00
2022-08-25T20:38:51.956Z,100.00
2022-08-25T20:40:53.673Z,100.00
2022-08-25T20:42:58.932Z,100.00
2022-08-25T20:45:01.039Z,100.00
2022-08-25T20:47:04.662Z,100.00
2022-08-25T20:49:07.410Z,100.00
2022-08-25T20:51:10.716Z,100.00
2022-08-25T20:53:13.631Z,100.00
2022-08-25T20:55:17.581Z,100.00
2022-08-25T20:57:25.672Z,100.00
2022-08-25T20:59:28.303Z,100.00
2022-08-25T21:01:30.620Z,100.00
2022-08-25T21:03:32.504Z,100.00
2022-08-25T21:05:34.830Z,100.00
2022-08-25T21:07:36.606Z,100.00
2022-08-25T21:09:38.356Z,100.00
2022-08-25T21:11:40.349Z,100.00
2022-08-25T21:13:42.161Z,100.00
2022-08-25T21:15:44.046Z,100.00
2022-08-25T21:17:51.510Z,100.00
2022-08-25T21:19:53.564Z,100.00
2022-08-25T21:21:59.607Z,100.00
2022-08-25T21:24:02.531Z,100.00
2022-08-25T21:26:05.795Z,100.00
2022-08-25T21:28:09.973Z,100.00
2022-08-25T21:30:12.824Z,100.00
2022-08-25T21:32:14.549Z,100.00
2022-08-25T21:34:18.582Z,100.00
2022-08-25T21:36:21.199Z,100.00
2022-08-25T21:38:22.998Z,100.00
2022-08-25T21:40:24.921Z,100.00
2022-08-25T21:42:26.762Z,100.00
2022-08-25T21:44:29.168Z,100.00
2022-08-25T21:46:32.906Z,100.00
2022-08-25T21:48:34.681Z,100.00
2022-08-25T21:50:37.787Z,100.00
2022-08-25T21:52:39.606Z,100.00
2022-08-25T21:54:43.989Z,100.00
2022-08-25T21:56:55.371Z,100.00
2022-08-25T21:58:57.134Z,100.00
2022-08-25T22:01:05.146Z,100.00
2022-08-25T22:03:12.696Z,100.00
2022-08-25T22:05:15.409Z,100.00
2022-08-25T22:07:22.321Z,100.00
2022-08-25T22:09:28.594Z,100.00
2022-08-25T22:11:33.964Z,100.00
2022-08-25T22:13:41.206Z,100.00
2022-08-25T22:15:45.022Z,100.00
2022-08-25T22:17:53.585Z,100.00
2022-08-25T22:19:55.359Z,100.00
2022-08-25T22:21:57.758Z,100.00
2022-08-25T22:24:00.709Z,100.00
2022-08-25T22:26:02.451Z,100.00
2022-08-25T22:28:04.535Z,100.00
2022-08-25T22:30:07.034Z,100.00
2022-08-25T22:32:08.793Z,100.00
2022-08-25T22:34:11.138Z,100.00
2022-08-25T22:36:36.281Z,100.00
2022-08-25T22:38:38.046Z,100.00
2022-08-25T22:40:40.760Z,100.00
2022-08-25T22:42:47.389Z,100.00
2022-08-25T22:44:49.797Z,100.00
2022-08-25T22:46:53.028Z,100.00
2022-08-25T22:48:55.780Z,100.00
2022-08-25T22:51:14.133Z,100.00
2022-08-25T22:53:16.175Z,100.00
2022-08-25T22:55:18.254Z,100.00
2022-08-25T22:57:23.755Z,100.00
2022-08-25T22:59:25.565Z,100.00
2022-08-25T23:01:27.580Z,100.00
2022-08-25T23:03:30.092Z,100.00
2022-08-25T23:05:32.124Z,100.00
2022-08-25T23:07:36.784Z,100.00
2022-08-25T23:09:40.585Z,100.00
2022-08-25T23:11:42.828Z,100.00
2022-08-25T23:13:45.604Z,100.00
2022-08-25T23:15:47.816Z,100.00
2022-08-25T23:17:49.713Z,100.00
2022-08-25T23:19:52.019Z,100.00
2022-08-25T23:21:53.966Z,100.00
2022-08-25T23:23:59.308Z,100.00
2022-08-25T23:26:01.070Z,100.00
2022-08-25T23:28:03.095Z,100.00
2022-08-25T23:30:05.708Z,100.00
2022-08-25T23:32:08.727Z,100.00
2022-08-25T23:34:10.668Z,100.00
2022-08-25T23:36:15.216Z,100.00
2022-08-25T23:38:18.624Z,100.00
2022-08-25T23:40:20.557Z,100.00
2022-08-25T23:42:22.349Z,100.00
2022-08-25T23:44:24.694Z,100.00
2022-08-25T23:46:28.466Z,100.00
2022-08-25T23:48:30.345Z,100.00
2022-08-25T23:50:39.153Z,100.00
2022-08-25T23:52:40.881Z,100.00
2022-08-25T23:54:43.609Z,100.00
2022-08-25T23:56:51.821Z,100.00
2022-08-25T23:58:54.255Z,100.00
